Flight Track Log - Related Links

Times and Time Zones

All times are in EDT time to prevent confusion due to time zone crossing. See the BEE2867 flight status page for this flight to view local times or setup timezone preferences in your user account.

Time Position Orientation Groundspeed Altitude Reporting Facility
EDT Latitude Longitude Course Direction KTS MPH feet Rate Location/Type
Mon 01:16:00 AM 60.0784 24.4583 227° Southwest  Level Estimated
Mon 01:17:00 AM 59.9984 24.2916 226° Southwest  Level Estimated
Mon 01:18:00 AM 59.9182 24.1257 226° Southwest  Level Estimated
Mon 01:19:00 AM 59.8378 23.9606 226° Southwest  Level Estimated
Mon 01:20:00 AM 59.7571 23.7963 226° Southwest  Level Estimated
Mon 01:21:00 AM 59.6763 23.6328 226° Southwest  Level Estimated
Mon 01:22:00 AM 59.5952 23.4701 225° Southwest  Level Estimated
Mon 01:23:00 AM 59.5140 23.3081 225° Southwest  Level Estimated
Mon 01:24:00 AM 59.4325 23.1470 225° Southwest  Level Estimated
Mon 01:25:00 AM 59.3509 22.9866 225° Southwest  Level Estimated
Mon 01:26:00 AM 59.2691 22.8270 225° Southwest  Level Estimated
Mon 01:27:00 AM 59.1870 22.6681 225° Southwest  Level Estimated
Mon 01:28:00 AM 59.1048 22.5100 225° Southwest  Level Estimated
Mon 01:29:00 AM 59.0224 22.3527 225° Southwest  Level Estimated
Mon 01:30:00 AM 58.9398 22.1961 224° Southwest  Level Estimated
Mon 01:31:00 AM 58.8570 22.0403 224° Southwest  Level Estimated
Mon 01:32:00 AM 58.7740 21.8852 224° Southwest  Level Estimated
Mon 01:33:00 AM 58.6908 21.7308 224° Southwest  Level Estimated
Mon 01:34:00 AM 58.6075 21.5772 224° Southwest  Level Estimated
Mon 01:35:00 AM 58.5240 21.4244 224° Southwest  Level Estimated
Mon 01:36:00 AM 58.4403 21.2722 224° Southwest  Level Estimated
Mon 01:37:00 AM 58.3564 21.1208 223° Southwest  Level Estimated
Mon 01:38:00 AM 58.2723 20.9701 223° Southwest  Level Estimated
Mon 01:39:00 AM 58.1880 20.8201 223° Southwest  Level Estimated
Mon 01:40:00 AM 58.1036 20.6708 223° Southwest  Level Estimated
Mon 01:41:00 AM 58.0190 20.5222 223° Southwest  Level Estimated
Mon 01:42:00 AM 57.9342 20.3743 223° Southwest  Level Estimated
Mon 01:43:00 AM 57.8493 20.2271 223° Southwest  Level Estimated
Mon 01:44:00 AM 57.7642 20.0806 223° Southwest  Level Estimated
Mon 01:45:00 AM 57.6789 19.9348 222° Southwest  Level Estimated
Mon 01:46:00 AM 57.5935 19.7897 222° Southwest  Level Estimated
Mon 01:47:00 AM 57.5079 19.6453 222° Southwest  Level Estimated
Mon 01:48:00 AM 57.4221 19.5015 222° Southwest  Level Estimated
Mon 01:49:00 AM 57.3362 19.3585 222° Southwest  Level Estimated
Mon 01:50:00 AM 57.2501 19.2160 222° Southwest  Level Estimated
Mon 01:51:00 AM 57.1638 19.0743 222° Southwest  Level Estimated
Mon 01:52:00 AM 57.0774 18.9332 222° Southwest  Level Estimated
Mon 01:53:00 AM 56.9908 18.7928 221° Southwest  Level Estimated
Mon 01:54:00 AM 56.9041 18.6530 221° Southwest  Level Estimated
Mon 01:55:00 AM 56.8172 18.5139 221° Southwest  Level Estimated
Mon 01:56:00 AM 56.7301 18.3754 221° Southwest  Level Estimated
Mon 01:57:00 AM 56.6430 18.2375 221° Southwest  Level Estimated
Mon 01:58:00 AM 56.5556 18.1003 221° Southwest  Level Estimated
Mon 01:59:00 AM 56.4681 17.9637 221° Southwest  Level Estimated
Mon 02:00:00 AM 56.3805 17.8278 221° Southwest  Level Estimated
Mon 02:01:00 AM 56.2927 17.6925 221° Southwest  Level Estimated
Mon 02:02:00 AM 56.2048 17.5578 220° Southwest  Level Estimated
Mon 02:03:00 AM 56.1167 17.4237 220° Southwest  Level Estimated
Mon 02:04:00 AM 56.0284 17.2902 220° Southwest  Level Estimated
Mon 02:05:00 AM 55.9401 17.1573 220° Southwest  Level Estimated
Mon 02:06:00 AM 55.8515 17.0251 220° Southwest  Level Estimated
Mon 02:07:00 AM 55.7629 16.8934 220° Southwest  Level Estimated
Mon 02:08:00 AM 55.6741 16.7623 220° Southwest  Level Estimated
Mon 02:09:00 AM 55.5851 16.6319 220° Southwest  Level Estimated
Mon 02:10:00 AM 55.4961 16.5020 220° Southwest  Level Estimated
Mon 02:11:00 AM 55.4069 16.3727 219° Southwest  Level Estimated
Mon 02:12:00 AM 55.3175 16.2440 219° Southwest  Level Estimated
Mon 02:13:00 AM 55.2280 16.1159 219° Southwest  Level Estimated
Mon 02:14:00 AM 55.1384 15.9883 219° Southwest  Level Estimated
Mon 02:15:00 AM 55.0487 15.8613 219° Southwest  Level Estimated
Mon 02:16:00 AM 54.9588 15.7349 219° Southwest  Level Estimated
Mon 02:17:00 AM 54.8688 15.6091 219° Southwest  Level Estimated
Mon 02:18:00 AM 54.7786 15.4838 219° Southwest  Level Estimated
Mon 02:19:00 AM 54.6884 15.3590 219° Southwest  Level Estimated
Mon 02:20:00 AM 54.5980 15.2349 219° Southwest  Level Estimated
Mon 02:21:00 AM 54.5075 15.1113 218° Southwest  Level Estimated
Mon 02:22:00 AM 54.4168 14.9882 218° Southwest  Level Estimated
Mon 02:23:00 AM 54.3260 14.8657 218° Southwest  Level Estimated
Mon 02:24:00 AM 54.2351 14.7437 218° Southwest  Level Estimated
Mon 02:25:00 AM 54.1441 14.6222 218° Southwest  Level Estimated
Mon 02:26:00 AM 54.0530 14.5013 218° Southwest  Level Estimated
Mon 02:27:00 AM 53.9617 14.3809 218° Southwest  Level Estimated
Mon 02:28:00 AM 53.8703 14.2610 218° Southwest  Level Estimated
Mon 02:29:00 AM 53.7789 14.1417 218° Southwest  Level Estimated
Mon 02:30:00 AM 53.6872 14.0228 218° Southwest  Level Estimated
Mon 02:31:00 AM 53.5955 13.9045 217° Southwest  Level Estimated
Mon 02:32:00 AM 53.5037 13.7867 217° Southwest  Level Estimated
Mon 02:33:00 AM 53.4117 13.6694 217° Southwest  Level Estimated
Mon 02:34:00 AM 53.3196 13.5527 217° Southwest  Level Estimated
Mon 02:35:00 AM 53.2274 13.4364 217° Southwest  Level Estimated
Mon 02:36:00 AM 53.1351 13.3206 217° Southwest  Level Estimated
Mon 02:37:00 AM 53.0427 13.2053 217° Southwest  Level Estimated
Mon 02:38:00 AM 52.9501 13.0905 217° Southwest  Level Estimated
Mon 02:39:00 AM 52.8575 12.9762 217° Southwest  Level Estimated
Mon 02:40:00 AM 52.7648 12.8624 217° Southwest  Level Estimated
Mon 02:41:00 AM 52.6719 12.7491 217° Southwest  Level Estimated
Mon 02:42:00 AM 52.5789 12.6362 216° Southwest  Level Estimated
Mon 02:43:00 AM 52.4859 12.5239 216° Southwest  Level Estimated
Mon 02:44:00 AM 52.3927 12.4120 216° Southwest  Level Estimated
Mon 02:45:00 AM 52.2994 12.3006 216° Southwest  Level Estimated
Mon 02:46:00 AM 52.2060 12.1896 216° Southwest  Level Estimated
Mon 02:47:00 AM 52.1125 12.0791 216° Southwest  Level Estimated
Mon 02:48:00 AM 52.0189 11.9691 216° Southwest  Level Estimated
Mon 02:49:00 AM 51.9253 11.8596 216° Southwest  Level Estimated
Mon 02:50:00 AM 51.8315 11.7504 216° Southwest  Level Estimated
Mon 02:51:00 AM 51.7375 11.6418 216° Southwest  Level Estimated
Mon 02:52:00 AM 51.6436 11.5336 216° Southwest  Level Estimated
Mon 02:53:00 AM 51.5494 11.4258 215° Southwest  Level Estimated
Mon 02:54:00 AM 51.4553 11.3185 215° Southwest  Level Estimated
Mon 02:55:00 AM 51.3610 11.2117 215° Southwest  Level Estimated
Mon 02:56:00 AM 51.2666 11.1052 215° Southwest  Level Estimated
Mon 02:57:00 AM 51.1721 10.9992 215° Southwest  Level Estimated
Mon 02:58:00 AM 51.0775 10.8937 215° Southwest  Level Estimated
Mon 02:59:00 AM 50.9828 10.7886 215° Southwest  Level Estimated
Mon 03:00:00 AM 50.8881 10.6839 215° Southwest  Level Estimated
Mon 03:01:00 AM 50.7932 10.5796 215° Southwest  Level Estimated
Mon 03:02:00 AM 50.6983 10.4757 215° Southwest  Level Estimated
Mon 03:03:00 AM 50.6032 10.3723 215° Southwest  Level Estimated
Mon 03:04:00 AM 50.5081 10.2693 215° Southwest  Level Estimated
Mon 03:05:00 AM 50.4128 10.1667 214° Southwest  Level Estimated
Mon 03:06:00 AM 50.3175 10.0645 214° Southwest  Level Estimated
Mon 03:07:00 AM 50.2221 9.9627 214° Southwest  Level Estimated
Mon 03:08:00 AM 50.1266 9.8614 214° Southwest  Level Estimated
Mon 03:09:00 AM 50.0310 9.7604 214° Southwest  Level Estimated
Mon 03:10:00 AM 49.9354 9.6598 214° Southwest  Level Estimated
Mon 03:11:00 AM 49.8396 9.5596 214° Southwest  Level Estimated
Mon 03:12:00 AM 49.7438 9.4599 214° Southwest  Level Estimated
Mon 03:13:00 AM 49.6478 9.3605 214° Southwest  Level Estimated
Mon 03:14:00 AM 49.5518 9.2615 214° Southwest  Level Estimated
Mon 03:15:00 AM 49.4557 9.1629 214° Southwest  Level Estimated
Mon 03:16:00 AM 49.3596 9.0647 214° Southwest  Level Estimated
Mon 03:17:00 AM 49.2633 8.9669 214° Southwest  Level Estimated
Mon 03:18:00 AM 49.1669 8.8694 213° Southwest  Level Estimated
Mon 03:19:00 AM 49.0705 8.7723 213° Southwest  Level Estimated
Mon 03:20:00 AM 48.9740 8.6756 213° Southwest  Level Estimated
Mon 03:21:00 AM 48.8774 8.5793 213° Southwest  Level Estimated
Mon 03:22:00 AM 48.7807 8.4834 213° Southwest  Level Estimated
Mon 03:23:00 AM 48.6840 8.3878 213° Southwest  Level Estimated
Mon 03:24:00 AM 48.5872 8.2926 213° Southwest  Level Estimated
Mon 03:25:00 AM 48.4902 8.1977 213° Southwest  Level Estimated
Mon 03:26:00 AM 48.3933 8.1032 213° Southwest  Level Estimated
Mon 03:27:00 AM 48.2962 8.0091 213° Southwest  Level Estimated
Mon 03:28:00 AM 48.1991 7.9153 213° Southwest  Level Estimated
Mon 03:29:00 AM 48.1019 7.8219 213° Southwest  Level Estimated
Mon 03:30:00 AM 48.0046 7.7289 213° Southwest  Level Estimated
Mon 03:31:00 AM 47.9072 7.6362 213° Southwest  Level Estimated
Mon 03:32:00 AM 47.8098 7.5438 212° Southwest  Level Estimated
Mon 03:33:00 AM 47.7123 7.4518 212° Southwest  Level Estimated
Mon 03:34:00 AM 47.6147 7.3601 212° Southwest  Level Estimated
Mon 03:35:00 AM 47.5170 7.2688 212° Southwest  Level Estimated
Mon 03:36:00 AM 47.4193 7.1778 212° Southwest  Level Estimated
Mon 03:37:00 AM 47.3215 7.0872 212° Southwest  Level Estimated
Mon 03:38:00 AM 47.2236 6.9968 212° Southwest  Level Estimated
Mon 03:39:00 AM 47.1257 6.9068 212° Southwest  Level Estimated
Mon 03:40:00 AM 47.0277 6.8172 212° Southwest  Level Estimated
Mon 03:41:00 AM 46.9296 6.7279 212° Southwest  Level Estimated
Mon 03:42:00 AM 46.8314 6.6389 212° Southwest  Level Estimated
Mon 03:43:00 AM 46.7332 6.5502 212° Southwest  Level Estimated
Mon 03:44:00 AM 46.6349 6.4619 212° Southwest  Level Estimated
Mon 03:45:00 AM 46.5366 6.3738 212° Southwest  Level Estimated
Mon 03:46:00 AM 46.4381 6.2861 212° Southwest  Level Estimated
Mon 03:47:00 AM 46.3397 6.1987 212° Southwest  Level Estimated
Mon 03:48:00 AM 46.2411 6.1116 211° Southwest  Level Estimated
Mon 03:49:00 AM 46.2381 6.1090 211° Southwest  Level Estimated
Mon 03:50:00 AM 46.2381 6.1090 North  Level Estimated
Mon 03:51:00 AM 46.2381 6.1090 North  Level Estimated
Mon 03:52:00 AM 46.2381 6.1090 North  Level Estimated
Mon 03:53:00 AM 46.2381 6.1090 North  Level Estimated
Mon 03:54:00 AM 46.2381 6.1090 North  Level Estimated
Mon 03:55:00 AM 46.2381 6.1090 North  Level Estimated
Mon 03:56:00 AM 46.2381 6.1090 North  Level Estimated
Mon 03:57:00 AM 46.2381 6.1090 North  Level Estimated
Mon 03:58:00 AM 46.2381 6.1090 North  Level Estimated
Mon 03:59:00 AM 46.2381 6.1090 North  Level Estimated
Mon 04:00:00 AM 46.2381 6.1090 North  Level Estimated
Mon 04:01:00 AM 46.2381 6.1090 North  Level Estimated
Mon 04:02:00 AM 46.2381 6.1090 North  Level Estimated
Mon 04:03:00 AM 46.2381 6.1090 North  Level Estimated
Mon 04:04:00 AM 46.2381 6.1090 North  Level Estimated

Login

Don't have an account? Register now (free) for customized features, flight alerts, and more!